sensor_id;sensor_type;location;lat;lon;timestamp;temperature;humidity
37285;DHT22;23172;53.550;9.964;2022-11-18T00:03:12;7.90;89.20
37285;DHT22;23172;53.550;9.964;2022-11-18T00:08:15;7.90;89.10
37285;DHT22;23172;53.550;9.964;2022-11-18T00:13:18;7.90;89.30
37285;DHT22;23172;53.550;9.964;2022-11-18T00:18:38;7.80;89.40
37285;DHT22;23172;53.550;9.964;2022-11-18T00:23:41;7.80;89.80
37285;DHT22;23172;53.550;9.964;2022-11-18T00:28:43;7.70;89.80
37285;DHT22;23172;53.550;9.964;2022-11-18T00:33:45;7.80;89.90
37285;DHT22;23172;53.550;9.964;2022-11-18T00:38:49;7.80;89.70
37285;DHT22;23172;53.550;9.964;2022-11-18T00:43:51;7.70;89.80
37285;DHT22;23172;53.550;9.964;2022-11-18T00:48:52;7.80;89.90
37285;DHT22;23172;53.550;9.964;2022-11-18T00:53:56;7.80;89.80
37285;DHT22;23172;53.550;9.964;2022-11-18T00:58:58;7.80;90.00
37285;DHT22;23172;53.550;9.964;2022-11-18T01:04:00;7.80;90.00
37285;DHT22;23172;53.550;9.964;2022-11-18T01:09:03;7.70;89.40
37285;DHT22;23172;53.550;9.964;2022-11-18T01:14:05;7.70;89.60
37285;DHT22;23172;53.550;9.964;2022-11-18T01:19:07;7.70;89.60
37285;DHT22;23172;53.550;9.964;2022-11-18T01:24:11;7.60;89.40
37285;DHT22;23172;53.550;9.964;2022-11-18T01:29:13;7.60;90.00
37285;DHT22;23172;53.550;9.964;2022-11-18T01:34:15;7.60;90.00
37285;DHT22;23172;53.550;9.964;2022-11-18T01:39:18;7.50;89.60
37285;DHT22;23172;53.550;9.964;2022-11-18T01:45:00;7.40;89.70
37285;DHT22;23172;53.550;9.964;2022-11-18T01:50:05;7.40;89.60
37285;DHT22;23172;53.550;9.964;2022-11-18T01:55:12;7.40;89.70
37285;DHT22;23172;53.550;9.964;2022-11-18T02:00:15;7.30;90.00
37285;DHT22;23172;53.550;9.964;2022-11-18T02:05:18;7.20;90.00
37285;DHT22;23172;53.550;9.964;2022-11-18T02:10:23;7.20;90.00
37285;DHT22;23172;53.550;9.964;2022-11-18T02:15:35;7.10;90.20
37285;DHT22;23172;53.550;9.964;2022-11-18T02:20:44;7.10;90.20
37285;DHT22;23172;53.550;9.964;2022-11-18T02:31:25;7.10;90.00
37285;DHT22;23172;53.550;9.964;2022-11-18T02:36:33;7.10;90.00
37285;DHT22;23172;53.550;9.964;2022-11-18T02:41:40;7.10;90.10
37285;DHT22;23172;53.550;9.964;2022-11-18T02:46:48;7.10;89.30
37285;DHT22;23172;53.550;9.964;2022-11-18T02:51:52;7.00;90.20
37285;DHT22;23172;53.550;9.964;2022-11-18T02:56:57;7.10;90.00
37285;DHT22;23172;53.550;9.964;2022-11-18T03:02:00;7.10;90.00
37285;DHT22;23172;53.550;9.964;2022-11-18T03:07:07;7.10;89.70
37285;DHT22;23172;53.550;9.964;2022-11-18T03:12:17;7.10;90.00
37285;DHT22;23172;53.550;9.964;2022-11-18T03:17:31;7.10;89.10
37285;DHT22;23172;53.550;9.964;2022-11-18T03:22:39;7.10;88.70
37285;DHT22;23172;53.550;9.964;2022-11-18T03:27:48;7.20;88.20
37285;DHT22;23172;53.550;9.964;2022-11-18T03:32:56;7.10;88.40
37285;DHT22;23172;53.550;9.964;2022-11-18T03:38:02;7.20;88.70
37285;DHT22;23172;53.550;9.964;2022-11-18T03:43:09;7.10;89.10
37285;DHT22;23172;53.550;9.964;2022-11-18T03:48:16;7.10;89.40
37285;DHT22;23172;53.550;9.964;2022-11-18T03:53:20;7.10;88.80
37285;DHT22;23172;53.550;9.964;2022-11-18T03:58:28;7.10;89.40
37285;DHT22;23172;53.550;9.964;2022-11-18T04:03:32;7.00;88.90
37285;DHT22;23172;53.550;9.964;2022-11-18T04:08:37;7.00;88.40
37285;DHT22;23172;53.550;9.964;2022-11-18T04:13:40;7.00;88.40
37285;DHT22;23172;53.550;9.964;2022-11-18T04:18:43;7.00;88.70
37285;DHT22;23172;53.550;9.964;2022-11-18T04:23:46;7.00;88.60
37285;DHT22;23172;53.550;9.964;2022-11-18T04:28:48;7.00;88.80
37285;DHT22;23172;53.550;9.964;2022-11-18T04:33:51;7.00;88.40
37285;DHT22;23172;53.550;9.964;2022-11-18T04:38:53;7.00;88.50
37285;DHT22;23172;53.550;9.964;2022-11-18T04:43:55;7.00;88.30
37285;DHT22;23172;53.550;9.964;2022-11-18T04:48:58;6.90;88.10
37285;DHT22;23172;53.550;9.964;2022-11-18T04:54:00;6.90;88.10
37285;DHT22;23172;53.550;9.964;2022-11-18T04:59:03;6.90;88.00
37285;DHT22;23172;53.550;9.964;2022-11-18T05:04:06;6.90;88.10
37285;DHT22;23172;53.550;9.964;2022-11-18T05:09:09;6.90;87.80
37285;DHT22;23172;53.550;9.964;2022-11-18T05:14:11;6.80;87.90
37285;DHT22;23172;53.550;9.964;2022-11-18T05:19:15;6.80;88.40
37285;DHT22;23172;53.550;9.964;2022-11-18T05:24:17;6.80;88.20
37285;DHT22;23172;53.550;9.964;2022-11-18T05:29:19;6.80;87.90
37285;DHT22;23172;53.550;9.964;2022-11-18T05:34:23;6.80;87.50
37285;DHT22;23172;53.550;9.964;2022-11-18T05:39:24;6.80;87.00
37285;DHT22;23172;53.550;9.964;2022-11-18T05:44:26;6.80;87.30
37285;DHT22;23172;53.550;9.964;2022-11-18T05:49:30;6.80;87.30
37285;DHT22;23172;53.550;9.964;2022-11-18T05:54:31;6.80;86.90
37285;DHT22;23172;53.550;9.964;2022-11-18T05:59:33;6.70;87.20
37285;DHT22;23172;53.550;9.964;2022-11-18T06:04:40;6.70;87.30
37285;DHT22;23172;53.550;9.964;2022-11-18T06:09:47;6.70;87.20
37285;DHT22;23172;53.550;9.964;2022-11-18T06:14:53;6.70;87.50
37285;DHT22;23172;53.550;9.964;2022-11-18T06:19:58;6.60;88.30
37285;DHT22;23172;53.550;9.964;2022-11-18T06:25:00;6.50;87.20
37285;DHT22;23172;53.550;9.964;2022-11-18T06:30:03;6.50;87.70
37285;DHT22;23172;53.550;9.964;2022-11-18T06:35:08;6.50;88.10
37285;DHT22;23172;53.550;9.964;2022-11-18T06:40:11;6.50;88.20
37285;DHT22;23172;53.550;9.964;2022-11-18T06:45:13;6.50;87.80
37285;DHT22;23172;53.550;9.964;2022-11-18T06:50:16;6.50;88.10
37285;DHT22;23172;53.550;9.964;2022-11-18T06:55:19;6.50;87.90
37285;DHT22;23172;53.550;9.964;2022-11-18T07:00:21;6.50;88.10
37285;DHT22;23172;53.550;9.964;2022-11-18T07:05:24;6.50;87.60
37285;DHT22;23172;53.550;9.964;2022-11-18T07:10:26;6.30;87.50
37285;DHT22;23172;53.550;9.964;2022-11-18T07:15:28;6.30;87.30
37285;DHT22;23172;53.550;9.964;2022-11-18T07:20:31;6.30;87.40
37285;DHT22;23172;53.550;9.964;2022-11-18T07:25:33;6.30;87.80
37285;DHT22;23172;53.550;9.964;2022-11-18T07:30:35;6.30;87.40
37285;DHT22;23172;53.550;9.964;2022-11-18T07:35:38;6.40;87.20
37285;DHT22;23172;53.550;9.964;2022-11-18T07:40:40;6.40;86.60
37285;DHT22;23172;53.550;9.964;2022-11-18T07:45:42;6.40;86.80
37285;DHT22;23172;53.550;9.964;2022-11-18T07:50:45;6.40;86.20
37285;DHT22;23172;53.550;9.964;2022-11-18T07:55:47;6.40;85.60
37285;DHT22;23172;53.550;9.964;2022-11-18T08:00:49;6.50;85.20
37285;DHT22;23172;53.550;9.964;2022-11-18T08:26:07;6.50;85.90
37285;DHT22;23172;53.550;9.964;2022-11-18T08:31:10;6.40;82.60
37285;DHT22;23172;53.550;9.964;2022-11-18T08:36:16;6.30;81.80
37285;DHT22;23172;53.550;9.964;2022-11-18T08:41:20;6.40;82.10
37285;DHT22;23172;53.550;9.964;2022-11-18T08:46:25;6.50;81.40
37285;DHT22;23172;53.550;9.964;2022-11-18T10:38:28;6.50;80.30
37285;DHT22;23172;53.550;9.964;2022-11-18T10:43:46;7.00;72.00
37285;DHT22;23172;53.550;9.964;2022-11-18T10:48:50;7.20;72.00
37285;DHT22;23172;53.550;9.964;2022-11-18T10:54:14;7.30;72.00
37285;DHT22;23172;53.550;9.964;2022-11-18T10:59:24;7.40;71.30
37285;DHT22;23172;53.550;9.964;2022-11-18T11:04:27;7.40;70.80
37285;DHT22;23172;53.550;9.964;2022-11-18T11:09:31;7.40;70.80
37285;DHT22;23172;53.550;9.964;2022-11-18T11:14:41;7.50;70.20
37285;DHT22;23172;53.550;9.964;2022-11-18T11:19:50;7.50;69.40
37285;DHT22;23172;53.550;9.964;2022-11-18T11:24:54;7.50;69.20
37285;DHT22;23172;53.550;9.964;2022-11-18T11:30:18;7.40;68.20
37285;DHT22;23172;53.550;9.964;2022-11-18T11:35:22;7.40;68.00
37285;DHT22;23172;53.550;9.964;2022-11-18T11:40:34;7.40;68.00
37285;DHT22;23172;53.550;9.964;2022-11-18T11:45:46;7.40;66.30
37285;DHT22;23172;53.550;9.964;2022-11-18T11:50:59;7.40;65.40
37285;DHT22;23172;53.550;9.964;2022-11-18T11:56:11;7.30;65.50
37285;DHT22;23172;53.550;9.964;2022-11-18T12:01:19;7.30;65.20
37285;DHT22;23172;53.550;9.964;2022-11-18T12:06:23;7.40;65.20
37285;DHT22;23172;53.550;9.964;2022-11-18T12:11:31;7.40;63.50
37285;DHT22;23172;53.550;9.964;2022-11-18T12:16:44;7.40;62.60
37285;DHT22;23172;53.550;9.964;2022-11-18T12:21:52;7.40;62.40
37285;DHT22;23172;53.550;9.964;2022-11-18T12:26:56;7.40;62.50
37285;DHT22;23172;53.550;9.964;2022-11-18T12:31:59;7.50;62.00
37285;DHT22;23172;53.550;9.964;2022-11-18T12:37:42;7.40;60.90
37285;DHT22;23172;53.550;9.964;2022-11-18T12:42:46;7.40;61.60
37285;DHT22;23172;53.550;9.964;2022-11-18T12:48:36;7.40;62.70
37285;DHT22;23172;53.550;9.964;2022-11-18T12:53:40;7.50;61.80
37285;DHT22;23172;53.550;9.964;2022-11-18T12:58:45;7.60;61.80
37285;DHT22;23172;53.550;9.964;2022-11-18T13:03:47;7.50;61.80
37285;DHT22;23172;53.550;9.964;2022-11-18T13:08:52;7.60;62.10
37285;DHT22;23172;53.550;9.964;2022-11-18T13:13:57;7.60;61.20
37285;DHT22;23172;53.550;9.964;2022-11-18T13:19:20;7.60;61.20
37285;DHT22;23172;53.550;9.964;2022-11-18T13:24:22;7.60;61.60
37285;DHT22;23172;53.550;9.964;2022-11-18T13:29:34;7.60;61.20
37285;DHT22;23172;53.550;9.964;2022-11-18T13:34:43;7.60;61.70
37285;DHT22;23172;53.550;9.964;2022-11-18T13:39:46;7.60;61.50
37285;DHT22;23172;53.550;9.964;2022-11-18T13:44:54;7.50;61.50
37285;DHT22;23172;53.550;9.964;2022-11-18T13:50:11;7.50;61.10
37285;DHT22;23172;53.550;9.964;2022-11-18T13:55:18;7.40;60.90
37285;DHT22;23172;53.550;9.964;2022-11-18T14:00:24;7.40;61.80
37285;DHT22;23172;53.550;9.964;2022-11-18T14:05:27;7.40;61.70
37285;DHT22;23172;53.550;9.964;2022-11-18T14:10:38;7.40;60.80
37285;DHT22;23172;53.550;9.964;2022-11-18T14:15:42;7.40;60.70
37285;DHT22;23172;53.550;9.964;2022-11-18T14:20:49;7.30;60.30
37285;DHT22;23172;53.550;9.964;2022-11-18T14:25:52;7.30;60.50
37285;DHT22;23172;53.550;9.964;2022-11-18T14:30:58;7.30;60.30
37285;DHT22;23172;53.550;9.964;2022-11-18T14:36:01;7.30;59.50
37285;DHT22;23172;53.550;9.964;2022-11-18T14:41:05;7.20;60.30
37285;DHT22;23172;53.550;9.964;2022-11-18T14:46:14;7.20;60.30
37285;DHT22;23172;53.550;9.964;2022-11-18T14:51:16;7.20;60.70
37285;DHT22;23172;53.550;9.964;2022-11-18T14:56:23;7.10;60.50
37285;DHT22;23172;53.550;9.964;2022-11-18T15:01:27;7.10;60.80
37285;DHT22;23172;53.550;9.964;2022-11-18T15:06:29;7.10;60.50
37285;DHT22;23172;53.550;9.964;2022-11-18T15:11:31;7.00;60.40
37285;DHT22;23172;53.550;9.964;2022-11-18T15:16:35;7.00;61.30
37285;DHT22;23172;53.550;9.964;2022-11-18T15:21:37;6.90;60.80
37285;DHT22;23172;53.550;9.964;2022-11-18T15:26:40;6.90;61.70
37285;DHT22;23172;53.550;9.964;2022-11-18T15:31:43;6.90;61.30
37285;DHT22;23172;53.550;9.964;2022-11-18T15:36:45;6.90;62.00
37285;DHT22;23172;53.550;9.964;2022-11-18T15:41:48;6.80;61.60
37285;DHT22;23172;53.550;9.964;2022-11-18T15:46:51;6.80;61.80
37285;DHT22;23172;53.550;9.964;2022-11-18T15:51:53;6.70;62.10
37285;DHT22;23172;53.550;9.964;2022-11-18T15:56:55;6.70;62.90
37285;DHT22;23172;53.550;9.964;2022-11-18T16:01:58;6.70;63.10
37285;DHT22;23172;53.550;9.964;2022-11-18T16:07:00;6.80;62.80
37285;DHT22;23172;53.550;9.964;2022-11-18T16:12:02;6.70;62.60
37285;DHT22;23172;53.550;9.964;2022-11-18T16:18:07;6.80;62.70
37285;DHT22;23172;53.550;9.964;2022-11-18T16:23:27;6.80;62.70
